Time;durP1;ratioP1;P1;durP2;ratioP2;P2;SDS_P1;SDS_P2;PMS_P1;PMS_P2;Temp;Humidity;BMP_temperature;BMP_pressure;BME280_temperature;BME280_humidity;BME280_pressure;Samples;Min_cycle;Max_cycle;Signal;HPM_P1;HPM_P2
2024/03/04 00:01:04;;;;;;;59.60;28.65;;;;;;;8.19;100.00;100298.75;4967204;28;20033;-69
2024/03/04 00:03:30;;;;;;;67.68;28.95;;;;;;;8.13;100.00;100301.91;4966177;28;20034;-71
2024/03/04 00:05:56;;;;;;;59.80;28.77;;;;;;;8.12;100.00;100312.41;4980567;28;20041;-70
2024/03/04 00:08:22;;;;;;;58.22;27.67;;;;;;;8.20;100.00;100325.38;4982539;28;20049;-70
2024/03/04 00:10:47;;;;;;;63.58;29.98;;;;;;;8.18;100.00;100325.53;4982445;28;20439;-70
2024/03/04 00:13:12;;;;;;;59.35;28.42;;;;;;;8.26;100.00;100329.94;4982490;28;20137;-70
2024/03/04 00:15:38;;;;;;;63.42;29.65;;;;;;;8.31;100.00;100329.47;4969716;28;20043;-71
2024/03/04 00:18:03;;;;;;;68.97;29.40;;;;;;;8.24;100.00;100342.19;4983450;28;20547;-72
2024/03/04 00:20:29;;;;;;;62.72;29.27;;;;;;;8.26;100.00;100350.59;4964749;28;20485;-72
2024/03/04 00:22:54;;;;;;;59.67;27.38;;;;;;;8.35;100.00;100341.13;4950314;28;20500;-72
2024/03/04 00:25:20;;;;;;;58.90;28.13;;;;;;;8.24;100.00;100344.78;4965894;28;20042;-72
2024/03/04 00:27:50;;;;;;;57.72;27.15;;;;;;;8.29;100.00;100358.06;4968178;28;20035;-70
2024/03/04 00:30:16;;;;;;;63.15;28.10;;;;;;;8.21;100.00;100365.72;4965050;28;20069;-70
2024/03/04 00:32:42;;;;;;;53.63;27.10;;;;;;;8.24;100.00;100365.44;4966360;28;20445;-70
2024/03/04 00:35:10;;;;;;;56.25;26.38;;;;;;;8.22;100.00;100366.56;4953291;28;20030;-69
2024/03/04 00:37:41;;;;;;;52.58;25.30;;;;;;;8.21;100.00;100370.88;4985303;28;20050;-72
2024/03/04 00:40:12;;;;;;;51.55;24.30;;;;;;;8.28;100.00;100363.38;4961196;28;20050;-69
2024/03/04 00:42:38;;;;;;;57.50;25.42;;;;;;;8.25;100.00;100376.56;4966559;28;20117;-72
2024/03/04 00:45:05;;;;;;;52.97;23.42;;;;;;;8.27;100.00;100375.47;4945611;28;20171;-72
2024/03/04 00:47:31;;;;;;;58.08;24.80;;;;;;;8.25;100.00;100385.16;4964224;28;20050;-72
2024/03/04 00:49:57;;;;;;;50.40;24.42;;;;;;;8.24;100.00;100385.28;4964155;28;20042;-72
2024/03/04 00:52:23;;;;;;;50.17;24.25;;;;;;;8.19;100.00;100390.91;4965762;28;20407;-72
2024/03/04 00:54:49;;;;;;;49.05;25.05;;;;;;;8.23;100.00;100394.00;4967203;28;20039;-70
2024/03/04 00:57:15;;;;;;;53.65;24.33;;;;;;;8.22;100.00;100392.38;4967129;28;20112;-70
2024/03/04 00:59:41;;;;;;;50.95;23.70;;;;;;;8.13;100.00;100399.25;4966049;28;20068;-70
2024/03/04 01:02:07;;;;;;;46.53;22.25;;;;;;;8.10;100.00;100409.88;4982320;28;20035;-70
2024/03/04 01:04:33;;;;;;;45.40;20.45;;;;;;;8.12;100.00;100415.72;4969602;28;20046;-69
2024/03/04 01:06:58;;;;;;;50.05;21.02;;;;;;;8.10;100.00;100418.44;4965891;28;20697;-72
2024/03/04 01:09:23;;;;;;;43.05;20.80;;;;;;;8.24;100.00;100422.25;4952701;28;20043;-72
2024/03/04 01:11:49;;;;;;;46.83;21.20;;;;;;;8.17;100.00;100427.22;4965793;28;20042;-72
2024/03/04 01:14:14;;;;;;;42.85;20.10;;;;;;;8.09;100.00;100429.72;4964165;28;20038;-72
2024/03/04 01:16:43;;;;;;;47.25;20.67;;;;;;;8.03;100.00;100426.94;4970830;28;20034;-72
2024/03/04 01:19:09;;;;;;;43.38;20.55;;;;;;;8.11;100.00;100434.75;4968255;28;20201;-70
2024/03/04 01:21:34;;;;;;;46.03;19.60;;;;;;;8.13;100.00;100440.56;4964711;28;20038;-70
2024/03/04 01:24:00;;;;;;;38.92;19.77;;;;;;;8.07;100.00;100443.75;4962180;28;20756;-70
2024/03/04 01:26:26;;;;;;;41.17;20.17;;;;;;;7.94;100.00;100442.34;4952646;28;20027;-72
2024/03/04 01:28:51;;;;;;;41.17;19.33;;;;;;;8.02;100.00;100446.75;4969495;28;20034;-73
2024/03/04 01:31:18;;;;;;;39.92;19.63;;;;;;;7.97;100.00;100442.06;4969673;28;20050;-72
2024/03/04 01:33:50;;;;;;;40.63;18.73;;;;;;;8.09;100.00;100452.16;4979198;28;20050;-73
2024/03/04 01:36:16;;;;;;;43.30;20.35;;;;;;;8.13;100.00;100451.72;4972750;28;20035;-72
2024/03/04 01:38:42;;;;;;;39.33;18.48;;;;;;;7.94;100.00;100451.88;4978841;28;20019;-73
2024/03/04 01:41:07;;;;;;;39.00;18.25;;;;;;;7.94;100.00;100452.66;4966053;28;20503;-72
2024/03/04 01:43:33;;;;;;;41.97;21.05;;;;;;;8.02;100.00;100454.50;4937344;28;20038;-73
2024/03/04 01:45:59;;;;;;;33.28;17.13;;;;;;;8.15;100.00;100459.31;4978831;28;20502;-72
2024/03/04 01:48:24;;;;;;;39.00;18.63;;;;;;;7.99;100.00;100449.66;4967711;28;20027;-73
2024/03/04 01:50:51;;;;;;;37.75;18.10;;;;;;;8.03;100.00;100466.47;4981830;28;20054;-71
2024/03/04 01:53:18;;;;;;;41.42;20.10;;;;;;;8.06;100.00;100455.03;4951754;28;20034;-72
2024/03/04 01:55:56;;;;;;;39.63;18.25;;;;;;;7.96;100.00;100462.84;4957564;28;20572;-72
2024/03/04 01:58:22;;;;;;;35.03;17.98;;;;;;;8.02;100.00;100464.84;4956788;28;20026;-70
2024/03/04 02:00:51;;;;;;;39.35;18.00;;;;;;;7.96;100.00;100462.84;4970275;28;20062;-70
2024/03/04 02:03:18;;;;;;;35.97;16.95;;;;;;;7.97;100.00;100467.88;4969432;28;20749;-72
2024/03/04 02:05:45;;;;;;;26.70;14.05;;;;;;;7.95;100.00;100464.63;4968109;28;20061;-72
2024/03/04 02:08:12;;;;;;;26.58;12.70;;;;;;;8.01;100.00;100476.16;4967422;28;20039;-72
2024/03/04 02:10:38;;;;;;;23.58;12.80;;;;;;;7.92;100.00;100474.44;4982813;28;20579;-72
2024/03/04 02:13:04;;;;;;;26.38;12.82;;;;;;;7.95;100.00;100471.56;4966241;28;20027;-72
2024/03/04 02:15:34;;;;;;;30.70;12.68;;;;;;;7.93;100.00;100482.03;4967115;28;20042;-70
2024/03/04 02:18:00;;;;;;;27.95;12.30;;;;;;;7.86;100.00;100475.84;4968288;28;20034;-70
2024/03/04 02:20:27;;;;;;;20.58;10.90;;;;;;;7.94;100.00;100477.69;4985278;28;20038;-70
2024/03/04 02:22:54;;;;;;;22.45;11.30;;;;;;;7.84;100.00;100482.13;4969850;28;20029;-70
2024/03/04 02:25:22;;;;;;;22.92;11.32;;;;;;;7.86;100.00;100481.00;4983845;28;20445;-70
2024/03/04 02:27:48;;;;;;;24.85;11.52;;;;;;;7.87;100.00;100482.59;4985656;28;20058;-71
2024/03/04 02:30:14;;;;;;;22.80;11.63;;;;;;;7.86;100.00;100480.19;4967353;28;20070;-70
2024/03/04 02:32:41;;;;;;;24.27;10.88;;;;;;;7.84;100.00;100480.34;4987924;28;20030;-70
2024/03/04 02:35:10;;;;;;;19.65;10.20;;;;;;;7.74;100.00;100488.16;4968090;28;20057;-69
2024/03/04 02:37:36;;;;;;;20.88;10.50;;;;;;;7.73;100.00;100498.59;4986721;28;20460;-72
2024/03/04 02:40:07;;;;;;;26.55;10.05;;;;;;;7.82;100.00;100491.75;4951662;28;20065;-72
2024/03/04 02:42:36;;;;;;;20.90;9.57;;;;;;;7.77;100.00;100493.00;4971401;28;20041;-72
2024/03/04 02:45:02;;;;;;;24.52;10.13;;;;;;;7.72;100.00;100494.38;4988693;28;20566;-73
2024/03/04 02:47:27;;;;;;;23.70;9.45;;;;;;;7.71;100.00;100500.53;4967085;28;20121;-72
2024/03/04 02:49:53;;;;;;;19.98;9.27;;;;;;;7.69;100.00;100502.44;4964607;28;20065;-72
2024/03/04 02:52:18;;;;;;;22.02;9.55;;;;;;;7.73;100.00;100506.34;4967071;28;20417;-73
2024/03/04 02:54:44;;;;;;;23.08;9.32;;;;;;;7.77;100.00;100523.16;4983012;28;20056;-72
2024/03/04 02:57:10;;;;;;;20.15;9.38;;;;;;;7.64;100.00;100512.38;4966494;28;20046;-72
2024/03/04 02:59:36;;;;;;;19.42;8.30;;;;;;;7.67;100.00;100520.66;4968037;28;20568;-72
2024/03/04 03:02:02;;;;;;;17.17;8.30;;;;;;;7.72;100.00;100517.63;4983048;28;20118;-72
2024/03/04 03:04:27;;;;;;;19.50;8.80;;;;;;;7.68;100.00;100524.84;4982534;28;20556;-72
2024/03/04 03:06:53;;;;;;;18.50;8.23;;;;;;;7.73;100.00;100519.25;4968734;28;20046;-72
2024/03/04 03:09:18;;;;;;;17.52;8.18;;;;;;;7.61;100.00;100526.38;4967532;28;20704;-72
2024/03/04 03:11:44;;;;;;;17.83;7.93;;;;;;;7.74;100.00;100523.44;4968320;28;20422;-72
2024/03/04 03:14:09;;;;;;;16.35;7.22;;;;;;;7.79;100.00;100534.16;4963125;28;20042;-72
2024/03/04 03:16:35;;;;;;;16.40;7.53;;;;;;;7.76;100.00;100532.69;4984904;28;20034;-72
2024/03/04 03:19:00;;;;;;;18.42;8.32;;;;;;;7.74;100.00;100533.78;4965061;28;20129;-72
2024/03/04 03:21:29;;;;;;;17.48;7.80;;;;;;;7.74;100.00;100537.19;4980374;28;20050;-69
2024/03/04 03:23:55;;;;;;;19.88;7.80;;;;;;;7.68;100.00;100536.94;4968140;28;20519;-70
2024/03/04 03:26:22;;;;;;;16.60;7.57;;;;;;;7.64;100.00;100533.81;4951864;28;20042;-70
2024/03/04 03:28:48;;;;;;;17.77;7.40;;;;;;;7.65;100.00;100540.63;4981264;28;20050;-70
2024/03/04 03:31:13;;;;;;;17.27;7.28;;;;;;;7.59;100.00;100541.16;4971064;28;20041;-73
2024/03/04 03:33:39;;;;;;;15.48;7.10;;;;;;;7.62;100.00;100547.84;4982825;28;20038;-70
2024/03/04 03:36:05;;;;;;;15.00;7.30;;;;;;;7.57;100.00;100543.09;4953240;28;20500;-70
2024/03/04 03:38:33;;;;;;;18.00;7.45;;;;;;;7.62;100.00;100548.63;4980332;28;20034;-73
2024/03/04 03:41:00;;;;;;;15.65;7.25;;;;;;;7.64;100.00;100551.09;4983194;28;20030;-72
2024/03/04 03:43:25;;;;;;;16.83;7.50;;;;;;;7.65;100.00;100557.84;4966910;28;20117;-73
2024/03/04 03:45:51;;;;;;;22.20;8.23;;;;;;;7.62;100.00;100553.81;4967014;28;20030;-72
2024/03/04 03:48:19;;;;;;;17.58;7.88;;;;;;;7.53;100.00;100564.97;4967806;28;20034;-72
2024/03/04 03:50:45;;;;;;;16.40;7.78;;;;;;;7.48;100.00;100565.41;4965285;28;20046;-73
2024/03/04 03:53:11;;;;;;;16.58;6.82;;;;;;;7.52;100.00;100571.91;4968690;28;20050;-70
2024/03/04 03:55:37;;;;;;;15.35;8.13;;;;;;;7.61;100.00;100575.41;4962771;28;21676;-72
2024/03/04 03:58:03;;;;;;;21.20;8.30;;;;;;;7.68;100.00;100588.53;4981479;28;20027;-72
2024/03/04 04:00:30;;;;;;;14.35;7.50;;;;;;;7.56;100.00;100593.88;4983578;28;20416;-72
2024/03/04 04:02:55;;;;;;;20.13;7.60;;;;;;;7.54;100.00;100598.38;4977931;28;20064;-72
2024/03/04 04:05:21;;;;;;;19.55;8.18;;;;;;;7.53;100.00;100601.91;4985042;28;20653;-72
2024/03/04 04:07:46;;;;;;;17.20;7.70;;;;;;;7.67;100.00;100607.59;4981489;28;20034;-72
2024/03/04 04:10:14;;;;;;;16.48;7.13;;;;;;;7.73;100.00;100602.66;4950647;28;20394;-73
2024/03/04 04:12:39;;;;;;;17.75;7.65;;;;;;;7.60;100.00;100612.50;4984092;28;20577;-73
2024/03/04 04:15:06;;;;;;;20.40;8.10;;;;;;;7.57;100.00;100612.75;4983702;28;20042;-73
2024/03/04 04:17:31;;;;;;;15.82;6.95;;;;;;;7.60;100.00;100618.44;4980613;28;20120;-73
2024/03/04 04:19:57;;;;;;;12.63;7.68;;;;;;;7.44;100.00;100617.41;4983936;28;20126;-73
2024/03/04 04:22:23;;;;;;;22.63;8.40;;;;;;;7.51;100.00;100623.66;4979521;28;20045;-73
2024/03/04 04:24:48;;;;;;;22.95;8.27;;;;;;;7.56;100.00;100635.19;4967368;28;20137;-73
2024/03/04 04:27:14;;;;;;;21.90;7.85;;;;;;;7.54;100.00;100637.09;4949478;28;20105;-73
2024/03/04 04:29:39;;;;;;;17.33;7.60;;;;;;;7.56;100.00;100642.91;4981059;28;20493;-72
2024/03/04 04:32:06;;;;;;;14.27;7.78;;;;;;;7.45;100.00;100645.66;4984183;28;20424;-73
2024/03/04 04:34:31;;;;;;;21.38;7.82;;;;;;;7.52;100.00;100644.16;4952753;28;20043;-73
2024/03/04 04:36:58;;;;;;;18.50;7.75;;;;;;;7.57;100.00;100641.97;4989440;28;20041;-73
2024/03/04 04:39:24;;;;;;;20.67;7.53;;;;;;;7.49;100.00;100648.78;4969907;28;20105;-73
2024/03/04 04:41:50;;;;;;;18.00;7.30;;;;;;;7.50;100.00;100647.84;4985994;28;20121;-73
2024/03/04 04:44:16;;;;;;;19.75;7.43;;;;;;;7.33;100.00;100655.34;4968255;28;20034;-73
2024/03/04 04:46:42;;;;;;;17.52;7.28;;;;;;;7.37;100.00;100655.88;4990031;28;20045;-73
2024/03/04 04:49:08;;;;;;;15.63;7.10;;;;;;;7.50;100.00;100658.16;4989341;28;20038;-71
2024/03/04 04:51:33;;;;;;;20.23;7.82;;;;;;;7.57;100.00;100652.31;4989486;28;20031;-70
2024/03/04 04:53:59;;;;;;;19.13;7.47;;;;;;;7.59;100.00;100663.28;4971140;28;20126;-72
2024/03/04 04:56:25;;;;;;;14.85;7.25;;;;;;;7.42;100.00;100661.41;4985174;28;20026;-72
2024/03/04 04:58:50;;;;;;;14.00;7.45;;;;;;;7.43;100.00;100657.09;4972431;28;20811;-73
2024/03/04 05:01:26;;;;;;;18.60;7.78;;;;;;;7.45;100.00;100662.91;4973012;28;20034;-73
2024/03/04 05:03:52;;;;;;;18.50;7.13;;;;;;;7.41;100.00;100662.38;4979955;28;20050;-73
2024/03/04 05:06:18;;;;;;;13.75;6.63;;;;;;;7.43;100.00;100669.97;4969961;28;20047;-72
2024/03/04 05:08:44;;;;;;;17.73;6.63;;;;;;;7.44;100.00;100669.00;4983745;28;20050;-73
2024/03/04 05:11:10;;;;;;;13.48;6.50;;;;;;;7.42;100.00;100661.41;4972734;28;20587;-72
2024/03/04 05:13:35;;;;;;;16.38;6.72;;;;;;;7.38;100.00;100662.63;4968881;28;20110;-73
2024/03/04 05:16:00;;;;;;;17.77;6.95;;;;;;;7.41;100.00;100670.13;4976558;28;20073;-73
2024/03/04 05:18:26;;;;;;;12.55;6.75;;;;;;;7.48;100.00;100665.19;4987233;28;20035;-73
2024/03/04 05:20:52;;;;;;;19.25;7.57;;;;;;;7.36;100.00;100674.88;4972157;28;20037;-73
2024/03/04 05:23:18;;;;;;;14.60;6.80;;;;;;;7.40;100.00;100665.91;4969423;28;20044;-72
2024/03/04 05:25:43;;;;;;;19.83;7.53;;;;;;;7.43;100.00;100680.31;4969722;28;20038;-73
2024/03/04 05:28:08;;;;;;;19.10;7.50;;;;;;;7.46;100.00;100682.59;4991648;28;20094;-72
2024/03/04 05:30:34;;;;;;;22.20;8.38;;;;;;;7.35;100.00;100681.78;4967771;28;20066;-74
2024/03/04 05:32:59;;;;;;;26.23;8.35;;;;;;;7.31;100.00;100677.88;4958378;28;20030;-73
2024/03/04 05:35:25;;;;;;;22.70;8.70;;;;;;;7.24;100.00;100676.78;4988853;28;20093;-73
2024/03/04 05:37:50;;;;;;;21.77;8.98;;;;;;;7.24;100.00;100683.72;4970602;28;20042;-73
2024/03/04 05:40:21;;;;;;;23.25;8.93;;;;;;;7.27;100.00;100686.84;4988976;28;20476;-72
2024/03/04 05:42:46;;;;;;;26.77;10.23;;;;;;;7.34;100.00;100693.06;4968401;28;20030;-73
2024/03/04 05:45:12;;;;;;;20.77;8.27;;;;;;;7.37;100.00;100692.78;4965505;28;20035;-73
2024/03/04 05:47:38;;;;;;;14.75;7.88;;;;;;;7.32;100.00;100694.16;4970653;28;20035;-70
2024/03/04 05:50:05;;;;;;;17.60;8.18;;;;;;;7.26;100.00;100697.28;4955433;28;20090;-70
2024/03/04 05:52:31;;;;;;;17.70;8.18;;;;;;;7.34;100.00;100692.25;4974684;28;20038;-72
2024/03/04 05:54:56;;;;;;;20.05;8.23;;;;;;;7.33;100.00;100703.53;4969529;28;20030;-72
2024/03/04 05:57:22;;;;;;;20.83;8.70;;;;;;;7.36;100.00;100706.63;4986579;28;20507;-73
2024/03/04 05:59:48;;;;;;;25.98;9.27;;;;;;;7.37;100.00;100710.03;4984939;28;20073;-72
2024/03/04 06:02:14;;;;;;;21.00;9.18;;;;;;;7.39;100.00;100705.56;4986461;28;20026;-73
2024/03/04 06:04:40;;;;;;;23.10;9.48;;;;;;;7.38;100.00;100712.50;4972899;28;20401;-71
2024/03/04 06:07:05;;;;;;;19.52;8.40;;;;;;;7.34;100.00;100715.47;4970456;28;20072;-71
2024/03/04 06:09:30;;;;;;;20.33;8.75;;;;;;;7.32;100.00;100704.47;4961340;28;20030;-71
2024/03/04 06:11:56;;;;;;;15.57;7.75;;;;;;;7.27;100.00;100710.06;4987709;28;20060;-71
2024/03/04 06:14:23;;;;;;;29.75;8.93;;;;;;;7.35;100.00;100709.38;4971770;28;20034;-71
2024/03/04 06:16:49;;;;;;;19.75;8.20;;;;;;;7.28;100.00;100711.66;4988930;28;20032;-71
2024/03/04 06:19:14;;;;;;;15.20;7.88;;;;;;;7.37;100.00;100710.03;4971696;28;20045;-71
2024/03/04 06:21:42;;;;;;;22.55;8.15;;;;;;;7.24;100.00;100712.09;4954480;28;20492;-71
2024/03/04 06:24:07;;;;;;;19.08;9.68;;;;;;;7.16;100.00;100710.19;4954005;28;20531;-71
2024/03/04 06:26:33;;;;;;;25.60;9.43;;;;;;;7.17;100.00;100727.28;4972725;28;20038;-71
2024/03/04 06:28:58;;;;;;;23.17;9.00;;;;;;;7.27;100.00;100730.69;4951500;28;20041;-71
2024/03/04 06:31:24;;;;;;;23.92;9.50;;;;;;;7.32;100.00;100725.91;4986528;28;20369;-71
2024/03/04 06:33:49;;;;;;;22.65;10.20;;;;;;;7.25;100.00;100729.97;4948199;28;20065;-71
2024/03/04 06:36:15;;;;;;;19.67;9.50;;;;;;;7.19;100.00;100733.91;4988254;28;20034;-71
2024/03/04 06:38:40;;;;;;;20.98;9.70;;;;;;;7.16;100.00;100741.94;4983724;28;20034;-71
2024/03/04 06:41:06;;;;;;;20.55;10.02;;;;;;;7.18;100.00;100734.88;4972492;28;20046;-71
2024/03/04 06:43:33;;;;;;;16.80;8.48;;;;;;;7.24;100.00;100738.69;4965425;28;20030;-72
2024/03/04 06:45:59;;;;;;;22.98;9.00;;;;;;;7.18;100.00;100746.97;4981566;28;20288;-71
2024/03/04 06:48:25;;;;;;;21.23;9.30;;;;;;;7.18;100.00;100747.78;4984676;28;20477;-72
2024/03/04 06:50:50;;;;;;;21.38;8.88;;;;;;;7.24;100.00;100745.63;4986471;28;20047;-71
2024/03/04 06:53:16;;;;;;;18.60;8.75;;;;;;;7.31;100.00;100749.25;4986344;28;20034;-71
2024/03/04 06:55:41;;;;;;;15.15;8.25;;;;;;;7.24;100.00;100758.50;4950619;28;20708;-71
2024/03/04 06:58:06;;;;;;;16.70;8.38;;;;;;;7.31;100.00;100752.69;4985269;28;20022;-71
2024/03/04 07:00:32;;;;;;;14.18;7.03;;;;;;;7.19;100.00;100758.91;4965694;28;20042;-71
2024/03/04 07:02:57;;;;;;;17.15;7.07;;;;;;;7.21;100.00;100757.00;4982529;28;20030;-72
2024/03/04 07:05:23;;;;;;;16.58;8.10;;;;;;;7.14;100.00;100750.75;4982442;28;20042;-71
2024/03/04 07:07:48;;;;;;;16.27;7.25;;;;;;;7.18;100.00;100763.25;4967538;28;20042;-71
2024/03/04 07:10:14;;;;;;;13.63;7.00;;;;;;;7.18;100.00;100758.09;4966425;28;20045;-71
2024/03/04 07:12:39;;;;;;;15.45;6.85;;;;;;;7.26;100.00;100757.41;4983807;28;20093;-71
2024/03/04 07:15:06;;;;;;;18.42;7.70;;;;;;;7.32;100.00;100758.66;4949969;28;20050;-71
2024/03/04 07:17:32;;;;;;;16.33;7.03;;;;;;;7.37;100.00;100757.28;4982979;28;20041;-71
2024/03/04 07:20:09;;;;;;;13.00;6.10;;;;;;;7.32;100.00;100759.44;5047611;28;20640;-70
2024/03/04 07:22:36;;;;;;;15.13;7.22;;;;;;;7.37;100.00;100770.19;5039513;28;20138;-70
2024/03/04 07:25:01;;;;;;;14.50;6.45;;;;;;;7.25;100.00;100773.81;5041255;28;20102;-70
2024/03/04 07:27:27;;;;;;;17.27;6.40;;;;;;;7.33;100.00;100771.41;5038708;28;20053;-70
2024/03/04 07:29:52;;;;;;;14.73;6.43;;;;;;;7.33;100.00;100778.34;5042898;28;20056;-70
2024/03/04 07:32:18;;;;;;;14.05;5.68;;;;;;;7.26;100.00;100765.16;5041655;28;20044;-70
2024/03/04 07:34:44;;;;;;;11.85;5.95;;;;;;;7.21;100.00;100773.31;5023960;28;20084;-70
2024/03/04 07:37:09;;;;;;;12.57;6.00;;;;;;;7.22;100.00;100782.66;5038772;28;20037;-70
2024/03/04 07:39:35;;;;;;;17.85;6.80;;;;;;;7.13;100.00;100775.72;5037900;28;20124;-70
2024/03/04 07:42:00;;;;;;;36.92;11.90;;;;;;;7.36;100.00;100775.47;5040116;28;20495;-70
2024/03/04 07:44:26;;;;;;;17.08;7.68;;;;;;;7.24;100.00;100774.00;5034170;28;20045;-70
2024/03/04 07:46:51;;;;;;;13.10;6.68;;;;;;;7.22;100.00;100777.50;5051822;28;20033;-70
2024/03/04 07:49:18;;;;;;;14.85;6.45;;;;;;;7.40;100.00;100774.25;5041188;28;20138;-72
2024/03/04 07:51:44;;;;;;;11.95;6.80;;;;;;;7.36;100.00;100772.91;5055136;28;20612;-72
2024/03/04 07:54:09;;;;;;;11.65;6.30;;;;;;;7.32;100.00;100779.28;5050905;28;20056;-70
2024/03/04 07:56:35;;;;;;;22.33;8.18;;;;;;;7.39;100.00;100781.19;5016546;28;20476;-70
2024/03/04 07:59:00;;;;;;;13.52;6.88;;;;;;;7.32;100.00;100782.66;5035189;28;20079;-71
2024/03/04 08:01:26;;;;;;;13.25;6.28;;;;;;;7.36;100.00;100781.44;5035256;28;21826;-70
2024/03/04 08:03:51;;;;;;;13.13;6.85;;;;;;;7.27;100.00;100787.44;5032432;28;20052;-71
2024/03/04 08:06:17;;;;;;;12.90;6.68;;;;;;;7.34;100.00;100785.91;5033024;28;20030;-71
2024/03/04 08:08:45;;;;;;;14.88;6.97;;;;;;;7.38;100.00;100784.72;5032304;28;20036;-71
2024/03/04 08:11:11;;;;;;;15.70;7.38;;;;;;;7.49;100.00;100798.44;5036499;28;20067;-70
2024/03/04 08:13:36;;;;;;;13.25;7.03;;;;;;;7.51;100.00;100788.78;5037950;28;20390;-71
2024/03/04 08:16:01;;;;;;;16.90;7.32;;;;;;;7.53;100.00;100794.63;5025095;28;20014;-71
2024/03/04 08:18:28;;;;;;;11.98;7.30;;;;;;;7.56;100.00;100784.84;5032321;28;20451;-71
2024/03/04 08:20:54;;;;;;;16.02;7.65;;;;;;;7.52;100.00;100788.66;5030181;28;20600;-71
2024/03/04 08:23:20;;;;;;;14.77;7.00;;;;;;;7.59;100.00;100789.75;5032486;28;20064;-70
2024/03/04 08:25:45;;;;;;;19.80;8.05;;;;;;;7.47;100.00;100798.56;5031492;28;20087;-70
2024/03/04 08:28:11;;;;;;;15.15;7.90;;;;;;;7.53;100.00;100798.00;5022084;28;20472;-71
2024/03/04 08:30:37;;;;;;;21.40;7.93;;;;;;;7.56;100.00;100796.94;5012219;28;20061;-71
2024/03/04 08:33:05;;;;;;;21.13;8.55;;;;;;;7.66;100.00;100791.78;5025079;28;20494;-71
2024/03/04 08:35:31;;;;;;;15.98;8.35;;;;;;;7.57;100.00;100801.13;5021714;28;20049;-71
2024/03/04 08:37:56;;;;;;;14.65;8.10;;;;;;;7.59;100.00;100797.50;5020193;28;20156;-70
2024/03/04 08:40:22;;;;;;;16.73;8.18;;;;;;;7.66;100.00;100799.50;5018353;28;20488;-71
2024/03/04 08:42:47;;;;;;;17.08;8.15;;;;;;;7.87;100.00;100789.03;5022991;28;20033;-70
2024/03/04 08:45:16;;;;;;;14.88;8.05;;;;;;;7.70;100.00;100798.28;5017235;28;20030;-70
2024/03/04 08:47:41;;;;;;;15.45;7.90;;;;;;;7.66;100.00;100800.31;5019671;28;20021;-71
2024/03/04 08:50:08;;;;;;;13.93;7.13;;;;;;;7.73;100.00;100806.56;4998832;28;20396;-70
2024/03/04 08:52:34;;;;;;;15.20;7.47;;;;;;;7.74;100.00;100810.78;5019976;28;20084;-70
2024/03/04 08:55:00;;;;;;;18.02;7.45;;;;;;;7.71;100.00;100810.25;5015509;28;20045;-70
2024/03/04 08:57:26;;;;;;;11.95;7.55;;;;;;;7.70;100.00;100804.25;5018242;28;20052;-70
2024/03/04 08:59:51;;;;;;;15.38;8.10;;;;;;;7.63;100.00;100803.19;5016804;28;20057;-70
2024/03/04 09:02:17;;;;;;;15.23;8.50;;;;;;;7.63;100.00;100804.94;5016433;28;20045;-71
2024/03/04 09:04:43;;;;;;;16.02;7.80;;;;;;;7.68;100.00;100806.16;5016812;28;20044;-70
2024/03/04 09:07:09;;;;;;;14.18;7.38;;;;;;;7.67;100.00;100808.91;5021531;28;20135;-71
2024/03/04 09:09:35;;;;;;;14.88;7.75;;;;;;;7.70;100.00;100813.78;5005569;28;20041;-71
2024/03/04 09:12:03;;;;;;;15.13;8.43;;;;;;;7.92;100.00;100821.22;5017963;28;20574;-71
2024/03/04 09:14:30;;;;;;;14.80;8.05;;;;;;;7.84;100.00;100825.47;5018393;28;20113;-70
2024/03/04 09:16:55;;;;;;;15.80;7.65;;;;;;;7.68;100.00;100826.00;5003594;28;20053;-71
2024/03/04 09:19:21;;;;;;;12.57;7.25;;;;;;;7.80;100.00;100830.88;5005036;28;20037;-71
2024/03/04 09:21:47;;;;;;;15.52;7.63;;;;;;;7.75;100.00;100832.25;5005693;28;20053;-70
2024/03/04 09:24:14;;;;;;;13.45;7.15;;;;;;;7.89;100.00;100831.00;5020328;28;20091;-71
2024/03/04 09:26:45;;;;;;;13.27;7.30;;;;;;;8.03;100.00;100832.38;5017279;28;20029;-70
2024/03/04 09:29:11;;;;;;;11.55;6.95;;;;;;;7.92;100.00;100825.56;5017637;28;20042;-71
2024/03/04 09:31:36;;;;;;;14.77;7.18;;;;;;;7.86;100.00;100836.47;5017443;28;20068;-70
2024/03/04 09:34:02;;;;;;;14.70;6.50;;;;;;;7.92;100.00;100831.56;5014655;28;20384;-71
2024/03/04 09:36:28;;;;;;;11.95;7.07;;;;;;;7.91;100.00;100835.09;5017511;28;20379;-71
2024/03/04 09:38:53;;;;;;;15.13;6.53;;;;;;;7.96;100.00;100842.41;5019851;28;20076;-70
2024/03/04 09:41:19;;;;;;;12.65;6.85;;;;;;;8.15;100.00;100846.75;5018207;28;20037;-71
2024/03/04 09:43:45;;;;;;;13.50;6.28;;;;;;;8.08;100.00;100837.91;4999514;28;20034;-71
2024/03/04 09:46:12;;;;;;;12.75;7.05;;;;;;;8.02;100.00;100856.53;5019622;28;23353;-70
2024/03/04 09:48:39;;;;;;;14.00;6.97;;;;;;;8.01;100.00;100855.75;5018412;28;20814;-71
2024/03/04 09:51:09;;;;;;;17.45;7.60;;;;;;;8.23;100.00;100853.78;5020150;28;20052;-71
2024/03/04 09:53:36;;;;;;;13.15;6.80;;;;;;;8.18;98.79;100849.06;5016965;28;20025;-71
2024/03/04 09:56:02;;;;;;;16.17;6.82;;;;;;;8.09;100.00;100857.63;5006834;28;20104;-70
2024/03/04 09:58:28;;;;;;;11.02;6.90;;;;;;;8.09;99.26;100855.84;5013223;28;20105;-71
2024/03/04 10:00:54;;;;;;;17.85;7.70;;;;;;;7.98;100.00;100853.44;5021953;28;20384;-70
2024/03/04 10:03:19;;;;;;;13.38;6.80;;;;;;;8.00;100.00;100854.09;5020490;28;20547;-70
2024/03/04 10:05:45;;;;;;;13.60;6.90;;;;;;;8.12;100.00;100859.94;5021310;28;20049;-71
2024/03/04 10:08:11;;;;;;;13.68;6.38;;;;;;;8.08;100.00;100850.81;5019168;28;20040;-71
2024/03/04 10:10:36;;;;;;;16.02;6.55;;;;;;;8.09;100.00;100853.28;5027529;23;20049;-70
2024/03/04 10:13:08;;;;;;;14.60;6.75;;;;;;;8.22;99.49;100855.56;5016911;28;20503;-70
2024/03/04 10:15:34;;;;;;;15.05;6.65;;;;;;;8.28;98.89;100856.78;5036598;28;20029;-70
2024/03/04 10:18:18;;;;;;;11.68;6.68;;;;;;;8.43;98.17;100860.56;5020425;28;20103;-70
2024/03/04 10:20:44;;;;;;;14.07;6.60;;;;;;;8.39;99.56;100852.25;5018677;28;20056;-71
2024/03/04 10:23:10;;;;;;;13.30;6.10;;;;;;;8.24;98.86;100855.44;5021630;28;20045;-70
2024/03/04 10:25:36;;;;;;;13.85;6.18;;;;;;;8.26;98.43;100863.84;5021222;28;20721;-70
2024/03/04 10:28:02;;;;;;;9.85;5.57;;;;;;;8.32;97.68;100861.53;5012979;28;20036;-71
2024/03/04 10:30:28;;;;;;;10.35;5.82;;;;;;;8.46;96.07;100867.25;5021149;28;20444;-71
2024/03/04 10:33:02;;;;;;;11.02;5.97;;;;;;;8.49;95.89;100867.75;5022828;28;20040;-70
2024/03/04 10:35:28;;;;;;;12.02;5.63;;;;;;;8.52;96.57;100866.69;5017932;28;20045;-71
2024/03/04 10:38:06;;;;;;;10.48;6.43;;;;;;;8.60;95.65;100861.63;5003885;28;20124;-70
2024/03/04 10:40:36;;;;;;;14.57;6.55;;;;;;;8.65;94.79;100862.00;5003028;28;20538;-71
2024/03/04 10:43:03;;;;;;;14.27;6.93;;;;;;;8.80;94.14;100864.13;5018110;28;20056;-71
2024/03/04 10:45:31;;;;;;;16.92;6.88;;;;;;;8.80;94.00;100867.53;5021879;28;20065;-71
2024/03/04 10:47:57;;;;;;;15.82;7.07;;;;;;;8.88;91.17;100869.41;5017848;28;20041;-70
2024/03/04 10:50:23;;;;;;;14.50;6.53;;;;;;;8.83;90.81;100867.22;5017632;28;20044;-70
2024/03/04 10:52:48;;;;;;;14.23;6.53;;;;;;;8.85;91.74;100869.69;5018081;28;20427;-71
2024/03/04 10:55:14;;;;;;;11.48;6.13;;;;;;;8.93;91.86;100873.19;5023314;28;20479;-71
2024/03/04 10:57:44;;;;;;;13.38;5.97;;;;;;;8.99;90.87;100871.00;5020694;28;20033;-71
2024/03/04 11:00:28;;;;;;;10.23;5.72;;;;;;;8.96;89.79;100859.94;5019603;28;20503;-71
2024/03/04 11:03:00;;;;;;;8.23;4.38;;;;;;;9.02;89.04;100873.28;5020168;28;20053;-71
2024/03/04 11:05:27;;;;;;;12.68;5.45;;;;;;;8.98;89.85;100871.94;5019794;28;20504;-70
2024/03/04 11:07:58;;;;;;;10.68;6.15;;;;;;;9.24;88.81;100874.66;5019503;28;20061;-70
2024/03/04 11:10:30;;;;;;;10.60;5.15;;;;;;;9.12;89.02;100872.28;5020849;28;20042;-70
2024/03/04 11:13:08;;;;;;;15.23;5.80;;;;;;;9.03;88.78;100873.13;5020551;28;20030;-70